createdAt,value
2018-06-30T00:00:38.773Z,7.70
2018-06-30T00:03:07.188Z,7.20
2018-06-30T00:05:35.578Z,7.93
2018-06-30T00:08:04.057Z,7.57
2018-06-30T00:10:32.710Z,8.13
2018-06-30T00:13:01.762Z,7.50
2018-06-30T00:15:30.169Z,6.97
2018-06-30T00:17:58.646Z,8.20
2018-06-30T00:20:27.093Z,7.17
2018-06-30T00:22:55.817Z,7.90
2018-06-30T00:25:24.275Z,7.07
2018-06-30T00:27:55.971Z,8.27
2018-06-30T00:30:25.032Z,8.30
2018-06-30T00:32:54.333Z,6.87
2018-06-30T00:35:22.715Z,7.80
2018-06-30T00:37:51.349Z,7.73
2018-06-30T00:40:19.742Z,7.80
2018-06-30T00:42:48.253Z,7.70
2018-06-30T00:45:16.634Z,7.97
2018-06-30T00:47:45.016Z,7.07
2018-06-30T00:50:13.510Z,7.70
2018-06-30T00:52:41.953Z,8.43
2018-06-30T00:55:10.373Z,7.80
2018-06-30T00:57:38.797Z,8.23
2018-06-30T01:00:07.206Z,8.30
2018-06-30T01:02:35.597Z,8.10
2018-06-30T01:05:04.109Z,8.50
2018-06-30T01:07:32.549Z,8.40
2018-06-30T01:10:00.963Z,7.73
2018-06-30T01:12:29.442Z,8.47
2018-06-30T01:14:58.561Z,8.43
2018-06-30T01:17:26.936Z,7.67
2018-06-30T01:19:55.673Z,8.47
2018-06-30T01:22:24.083Z,8.40
2018-06-30T01:24:52.521Z,7.67
2018-06-30T01:27:20.961Z,8.37
2018-06-30T01:29:49.041Z,9.00
2018-06-30T01:32:17.897Z,8.50
2018-06-30T01:34:46.345Z,8.93
2018-06-30T01:37:14.729Z,8.97
2018-06-30T01:39:43.150Z,7.43
2018-06-30T01:42:11.553Z,8.83
2018-06-30T01:44:39.938Z,8.33
2018-06-30T01:47:08.043Z,9.27
2018-06-30T01:49:36.454Z,8.83
2018-06-30T01:52:04.900Z,8.70
2018-06-30T01:54:33.294Z,8.27
2018-06-30T01:57:01.662Z,8.73
2018-06-30T01:59:30.082Z,9.20
2018-06-30T02:01:58.479Z,9.93
2018-06-30T02:04:26.882Z,10.03
2018-06-30T02:06:55.344Z,9.63
2018-06-30T02:09:23.740Z,9.17
2018-06-30T02:11:51.817Z,9.30
2018-06-30T02:14:20.205Z,9.10
2018-06-30T02:16:48.653Z,9.23
2018-06-30T02:19:17.043Z,9.80
2018-06-30T02:21:45.435Z,9.07
2018-06-30T02:24:13.810Z,9.40
2018-06-30T02:26:42.184Z,10.03
2018-06-30T02:29:10.577Z,10.37
2018-06-30T02:31:38.977Z,9.87
2018-06-30T02:34:07.772Z,9.80
2018-06-30T02:36:36.306Z,9.93
2018-06-30T02:39:06.781Z,10.17
2018-06-30T02:41:35.322Z,9.90
2018-06-30T02:44:03.801Z,10.13
2018-06-30T02:46:32.251Z,10.33
2018-06-30T02:49:00.658Z,10.00
2018-06-30T02:51:29.066Z,10.67
2018-06-30T02:53:57.570Z,10.60
2018-06-30T02:56:25.993Z,10.10
2018-06-30T02:58:54.439Z,10.63
2018-06-30T03:01:23.415Z,10.53
2018-06-30T03:03:52.109Z,10.03
2018-06-30T03:06:20.260Z,10.70
2018-06-30T03:08:48.655Z,10.20
2018-06-30T03:11:17.038Z,10.77
2018-06-30T03:13:45.496Z,10.67
2018-06-30T03:16:16.553Z,10.87
2018-06-30T03:18:45.749Z,11.37
2018-06-30T03:21:14.159Z,10.53
2018-06-30T03:23:42.521Z,10.47
2018-06-30T03:26:11.100Z,10.60
2018-06-30T03:28:41.057Z,10.30
2018-06-30T03:31:09.496Z,10.73
2018-06-30T03:33:37.941Z,11.07
2018-06-30T03:36:06.401Z,12.17
2018-06-30T03:38:34.859Z,11.37
2018-06-30T03:41:03.406Z,11.53
2018-06-30T03:43:31.900Z,11.27
2018-06-30T03:46:00.360Z,11.43
2018-06-30T03:48:28.750Z,11.97
2018-06-30T03:50:57.169Z,11.10
2018-06-30T03:53:25.284Z,11.77
2018-06-30T03:55:53.691Z,11.57
2018-06-30T03:58:22.069Z,11.67
2018-06-30T04:00:50.485Z,11.53
2018-06-30T04:03:18.869Z,11.77
2018-06-30T04:05:47.310Z,12.20
2018-06-30T04:08:16.355Z,12.20
2018-06-30T04:10:44.753Z,12.27
2018-06-30T04:13:13.194Z,12.67
2018-06-30T04:15:41.572Z,12.93
2018-06-30T04:18:09.977Z,12.00
2018-06-30T04:20:38.372Z,12.80
2018-06-30T04:23:06.739Z,12.23
2018-06-30T04:25:35.221Z,12.80
2018-06-30T04:28:03.674Z,13.23
2018-06-30T04:30:32.090Z,13.27
2018-06-30T04:33:00.579Z,13.33
2018-06-30T04:35:29.021Z,13.60
2018-06-30T04:37:57.476Z,12.43
2018-06-30T04:40:25.870Z,14.33
2018-06-30T04:42:54.252Z,14.50
2018-06-30T04:45:22.694Z,14.63
2018-06-30T04:47:51.089Z,15.73
2018-06-30T04:50:19.478Z,15.03
2018-06-30T04:52:47.832Z,13.80
2018-06-30T04:55:16.853Z,14.43
2018-06-30T04:57:45.283Z,15.13
2018-06-30T05:00:13.768Z,16.07
2018-06-30T05:02:42.234Z,16.30
2018-06-30T05:05:10.634Z,16.67
2018-06-30T05:07:39.013Z,15.30
2018-06-30T05:10:07.511Z,16.50
2018-06-30T05:12:35.909Z,17.57
2018-06-30T05:15:04.723Z,13.67
2018-06-30T05:17:33.137Z,15.93
2018-06-30T05:20:01.576Z,15.63
2018-06-30T05:22:30.023Z,17.00
2018-06-30T05:24:58.431Z,14.60
2018-06-30T05:27:26.810Z,17.13
2018-06-30T05:29:55.196Z,17.83
2018-06-30T05:32:23.589Z,17.23
2018-06-30T05:34:51.951Z,17.57
2018-06-30T05:37:20.409Z,16.73
2018-06-30T05:39:48.830Z,17.60
2018-06-30T05:42:17.381Z,17.97
2018-06-30T05:44:45.795Z,17.47
2018-06-30T05:47:14.211Z,17.87
2018-06-30T05:49:42.649Z,15.40
2018-06-30T05:52:11.121Z,17.57
2018-06-30T05:54:39.549Z,16.53
2018-06-30T05:57:08.620Z,17.47
2018-06-30T05:59:37.009Z,17.30
2018-06-30T06:02:05.578Z,13.80
2018-06-30T06:04:40.706Z,16.23
2018-06-30T06:07:09.117Z,17.33
2018-06-30T06:09:37.569Z,16.20
2018-06-30T06:12:06.089Z,15.53
2018-06-30T06:14:34.558Z,17.03
2018-06-30T06:17:02.934Z,16.70
2018-06-30T06:19:31.410Z,17.13
2018-06-30T06:21:59.800Z,16.60
2018-06-30T06:24:28.180Z,15.90
2018-06-30T06:26:56.564Z,12.13
2018-06-30T06:29:24.977Z,15.40
2018-06-30T06:31:53.379Z,15.87
2018-06-30T06:34:21.786Z,16.83
2018-06-30T06:36:50.213Z,17.67
2018-06-30T06:39:18.646Z,17.13
2018-06-30T06:41:47.139Z,13.67
2018-06-30T06:44:15.201Z,16.03
2018-06-30T06:46:43.601Z,16.87
2018-06-30T06:49:11.992Z,19.63
2018-06-30T06:51:40.378Z,19.20
2018-06-30T06:54:08.800Z,18.93
2018-06-30T06:56:37.188Z,13.97
2018-06-30T06:59:06.716Z,19.13
2018-06-30T07:01:35.103Z,11.23
2018-06-30T07:04:03.536Z,17.60
2018-06-30T07:06:32.102Z,16.83
2018-06-30T07:09:00.488Z,12.20
2018-06-30T07:11:28.880Z,17.20
2018-06-30T07:13:56.940Z,19.43
2018-06-30T07:16:25.361Z,19.30
2018-06-30T07:18:53.742Z,15.70
2018-06-30T07:21:22.095Z,18.00
2018-06-30T07:23:50.501Z,19.87
2018-06-30T07:26:19.858Z,18.53
2018-06-30T07:28:48.255Z,20.27
2018-06-30T07:31:16.883Z,19.93
2018-06-30T07:33:45.170Z,20.77
2018-06-30T07:36:13.529Z,15.73
2018-06-30T07:38:41.994Z,18.53
2018-06-30T07:41:10.386Z,15.83
2018-06-30T07:43:38.836Z,19.13
2018-06-30T07:46:07.206Z,18.93
2018-06-30T07:48:35.670Z,19.60
2018-06-30T07:51:04.087Z,16.80
2018-06-30T07:53:32.471Z,19.27
2018-06-30T07:56:00.912Z,18.40
2018-06-30T07:58:29.485Z,20.03
2018-06-30T08:00:57.989Z,20.40
2018-06-30T08:03:26.438Z,17.13
2018-06-30T08:05:54.810Z,16.70
2018-06-30T08:08:23.199Z,12.97
2018-06-30T08:10:51.653Z,17.20
2018-06-30T08:13:20.113Z,17.17
2018-06-30T08:15:48.511Z,16.13
2018-06-30T08:18:17.044Z,16.37
2018-06-30T08:20:45.497Z,16.83
2018-06-30T08:23:13.925Z,16.67
2018-06-30T08:25:42.403Z,13.97
2018-06-30T08:28:10.872Z,16.33
2018-06-30T08:30:39.359Z,14.70
2018-06-30T08:33:08.562Z,15.27
2018-06-30T08:35:37.022Z,14.93
2018-06-30T08:38:05.656Z,13.10
2018-06-30T08:40:34.154Z,9.43
2018-06-30T08:43:02.555Z,14.43
2018-06-30T08:45:30.990Z,12.60
2018-06-30T08:47:59.422Z,13.40
2018-06-30T08:50:27.945Z,7.87
2018-06-30T08:52:56.383Z,13.17
2018-06-30T08:55:24.884Z,13.40
2018-06-30T08:57:53.301Z,12.83
2018-06-30T09:00:21.706Z,13.33
2018-06-30T09:02:50.154Z,11.97
2018-06-30T09:05:18.592Z,14.00
2018-06-30T09:07:47.022Z,14.13
2018-06-30T09:10:15.491Z,12.43
2018-06-30T09:12:43.877Z,10.23
2018-06-30T09:15:12.294Z,11.57
2018-06-30T09:17:40.803Z,10.70
2018-06-30T09:20:09.355Z,11.53
2018-06-30T09:22:37.771Z,10.30
2018-06-30T09:25:06.235Z,12.00
2018-06-30T09:27:34.691Z,9.23
2018-06-30T09:30:03.104Z,10.17
2018-06-30T09:32:31.534Z,10.40
2018-06-30T09:34:59.935Z,11.30
2018-06-30T09:37:28.297Z,9.17
2018-06-30T09:39:56.699Z,10.77
2018-06-30T09:42:24.791Z,9.23
2018-06-30T09:44:53.251Z,9.80
2018-06-30T09:47:21.805Z,8.83
2018-06-30T09:49:50.237Z,8.83
2018-06-30T09:52:18.643Z,9.23
2018-06-30T09:54:47.162Z,9.37
2018-06-30T09:57:15.577Z,9.43
2018-06-30T09:59:43.981Z,10.00
2018-06-30T10:02:12.399Z,9.30
2018-06-30T10:04:40.811Z,7.53
2018-06-30T10:07:09.848Z,9.30
2018-06-30T10:09:38.358Z,7.33
2018-06-30T10:12:06.844Z,8.77
2018-06-30T10:14:35.317Z,8.17
2018-06-30T10:17:03.837Z,7.97
2018-06-30T10:19:32.018Z,8.87
2018-06-30T10:22:00.641Z,7.83
2018-06-30T10:24:29.028Z,7.50
2018-06-30T10:26:57.449Z,9.07
2018-06-30T10:29:25.906Z,8.50
2018-06-30T10:31:54.326Z,9.10
2018-06-30T10:34:22.768Z,8.00
2018-06-30T10:36:51.811Z,9.17
2018-06-30T10:39:19.920Z,7.97
2018-06-30T10:41:48.414Z,8.10
2018-06-30T10:44:16.898Z,7.50
2018-06-30T10:46:45.290Z,7.10
2018-06-30T10:49:14.603Z,7.47
2018-06-30T10:51:43.011Z,5.60
2018-06-30T10:54:11.069Z,7.23
2018-06-30T10:56:39.536Z,6.17
2018-06-30T10:59:07.918Z,7.27
2018-06-30T11:01:36.460Z,8.43
2018-06-30T11:04:04.962Z,7.37
2018-06-30T11:06:33.375Z,5.57
2018-06-30T11:09:01.766Z,6.17
2018-06-30T11:11:30.160Z,5.57
2018-06-30T11:13:58.538Z,6.87
2018-06-30T11:16:26.914Z,6.67
2018-06-30T11:18:55.321Z,6.20
2018-06-30T11:21:23.686Z,6.40
2018-06-30T11:23:52.126Z,5.57
2018-06-30T11:26:20.529Z,5.37
2018-06-30T11:28:48.947Z,6.93
2018-06-30T11:31:17.376Z,5.70
2018-06-30T11:33:45.737Z,5.73
2018-06-30T11:36:14.123Z,6.67
2018-06-30T11:38:42.537Z,6.23
2018-06-30T11:41:10.999Z,5.77
2018-06-30T11:43:39.498Z,6.50
2018-06-30T11:46:08.017Z,7.37
2018-06-30T11:48:36.507Z,5.53
2018-06-30T11:51:05.865Z,6.30
2018-06-30T11:53:34.305Z,6.40
2018-06-30T11:56:02.711Z,7.10
2018-06-30T11:58:31.109Z,6.73
2018-06-30T12:00:59.538Z,5.83
2018-06-30T12:03:27.980Z,6.27
2018-06-30T12:05:56.370Z,5.50
2018-06-30T12:08:24.781Z,5.07
2018-06-30T12:10:53.165Z,6.00
2018-06-30T12:13:22.241Z,6.03
2018-06-30T12:15:50.692Z,5.70
2018-06-30T12:18:19.092Z,6.00
2018-06-30T12:20:47.453Z,5.67
2018-06-30T12:23:15.987Z,5.33
2018-06-30T12:25:44.338Z,5.50
2018-06-30T12:28:12.736Z,5.30
2018-06-30T12:30:41.158Z,5.40
2018-06-30T12:33:09.600Z,4.40
2018-06-30T12:35:37.985Z,5.10
2018-06-30T12:38:06.422Z,5.17
2018-06-30T12:40:34.858Z,4.60
2018-06-30T12:43:03.245Z,4.80
2018-06-30T12:45:31.641Z,4.93
2018-06-30T12:48:00.088Z,4.60
2018-06-30T12:50:28.444Z,4.73
2018-06-30T12:52:56.889Z,4.70
2018-06-30T12:55:25.344Z,4.30
2018-06-30T12:57:53.821Z,5.03
2018-06-30T13:00:22.274Z,3.70
2018-06-30T13:02:50.717Z,4.20
2018-06-30T13:05:19.238Z,4.40
2018-06-30T13:07:47.316Z,4.30
2018-06-30T13:10:15.727Z,3.90
2018-06-30T13:12:44.259Z,4.20
2018-06-30T13:15:12.724Z,3.80
2018-06-30T13:17:41.164Z,4.03
2018-06-30T13:20:09.621Z,3.70
2018-06-30T13:22:38.045Z,3.93
2018-06-30T13:25:06.812Z,4.03
2018-06-30T13:27:35.277Z,3.50
2018-06-30T13:30:03.382Z,3.50
2018-06-30T13:32:31.813Z,4.03
2018-06-30T13:35:00.283Z,3.70
2018-06-30T13:37:28.763Z,3.90
2018-06-30T13:39:57.170Z,3.93
2018-06-30T13:42:25.780Z,3.50
2018-06-30T13:44:54.305Z,4.00
2018-06-30T13:47:22.722Z,3.70
2018-06-30T13:49:51.129Z,3.60
2018-06-30T13:52:19.669Z,4.17
2018-06-30T13:54:48.053Z,3.20
2018-06-30T13:57:16.607Z,3.53
2018-06-30T13:59:45.393Z,3.50
2018-06-30T14:02:13.818Z,3.80
2018-06-30T14:04:42.381Z,3.33
2018-06-30T14:07:11.204Z,4.07
2018-06-30T14:09:39.332Z,3.60
2018-06-30T14:12:07.760Z,3.47
2018-06-30T14:14:36.614Z,3.37
2018-06-30T14:17:05.086Z,3.00
2018-06-30T14:19:33.493Z,3.77
2018-06-30T14:22:02.018Z,3.70
2018-06-30T14:24:30.482Z,3.43
2018-06-30T14:26:58.908Z,3.40
2018-06-30T14:29:27.272Z,3.23
2018-06-30T14:31:55.683Z,3.47
2018-06-30T14:34:24.062Z,3.20
2018-06-30T14:36:52.495Z,3.20
2018-06-30T14:39:20.916Z,3.37
2018-06-30T14:41:49.381Z,3.27
2018-06-30T14:44:26.719Z,3.50
2018-06-30T14:46:55.025Z,3.30
2018-06-30T14:49:23.518Z,3.33
2018-06-30T14:51:51.965Z,3.33
2018-06-30T14:54:20.345Z,2.90
2018-06-30T14:56:49.573Z,3.00
2018-06-30T14:59:18.608Z,3.07
2018-06-30T15:01:47.554Z,3.10
2018-06-30T15:04:16.680Z,3.10
2018-06-30T15:06:47.738Z,2.90
2018-06-30T15:09:17.146Z,2.70
2018-06-30T15:14:37.376Z,2.57
2018-06-30T15:17:05.827Z,2.60
2018-06-30T15:19:34.248Z,2.83
2018-06-30T15:22:02.723Z,2.73
2018-06-30T15:24:31.155Z,2.07
2018-06-30T15:26:59.625Z,2.40
2018-06-30T15:29:28.080Z,2.30
2018-06-30T15:31:56.462Z,2.20
2018-06-30T15:34:24.930Z,2.47
2018-06-30T15:36:53.344Z,2.30
2018-06-30T15:39:21.730Z,2.60
2018-06-30T15:41:50.153Z,2.20
2018-06-30T15:44:18.551Z,2.50
2018-06-30T15:46:47.769Z,2.33
2018-06-30T15:49:16.226Z,2.00
2018-06-30T15:51:44.709Z,2.07
2018-06-30T15:54:13.126Z,2.30
2018-06-30T15:56:41.517Z,2.00
2018-06-30T15:59:09.967Z,1.90
2018-06-30T16:01:38.514Z,2.20
2018-06-30T16:04:07.022Z,2.00
2018-06-30T16:06:35.469Z,1.90
2018-06-30T16:09:05.790Z,1.53
2018-06-30T16:11:34.888Z,1.90
2018-06-30T16:14:03.961Z,1.87
2018-06-30T16:16:32.485Z,2.10
2018-06-30T16:19:00.827Z,1.70
2018-06-30T16:21:28.903Z,1.60
2018-06-30T16:23:57.137Z,1.70
2018-06-30T16:26:25.522Z,2.00
2018-06-30T16:28:54.133Z,2.00
2018-06-30T16:31:22.554Z,1.70
2018-06-30T16:33:51.767Z,2.10
2018-06-30T16:36:20.606Z,1.70
2018-06-30T16:38:49.018Z,1.80
2018-06-30T16:41:17.437Z,1.70
2018-06-30T16:43:46.032Z,1.53
2018-06-30T16:46:14.433Z,1.57
2018-06-30T16:48:42.865Z,1.80
2018-06-30T16:51:11.333Z,1.77
2018-06-30T16:53:39.729Z,1.80
2018-06-30T16:56:08.167Z,1.73
2018-06-30T16:58:36.676Z,1.60
2018-06-30T17:01:05.122Z,1.70
2018-06-30T17:03:33.230Z,1.70
2018-06-30T17:06:01.642Z,1.63
2018-06-30T17:08:30.203Z,1.90
2018-06-30T17:10:58.681Z,1.93
2018-06-30T17:13:27.099Z,2.10
2018-06-30T17:15:55.653Z,1.80
2018-06-30T17:18:24.173Z,1.60
2018-06-30T17:20:52.676Z,1.70
2018-06-30T17:23:21.264Z,1.90
2018-06-30T17:25:49.676Z,2.07
2018-06-30T17:28:18.194Z,2.00
2018-06-30T17:30:46.589Z,2.00
2018-06-30T17:33:14.984Z,2.50
2018-06-30T17:35:43.474Z,2.77
2018-06-30T17:38:11.883Z,2.73
2018-06-30T17:40:40.369Z,2.77
2018-06-30T17:43:08.859Z,2.80
2018-06-30T17:45:37.308Z,2.50
2018-06-30T17:48:05.765Z,2.33
2018-06-30T17:50:34.273Z,2.73
2018-06-30T17:53:02.716Z,2.57
2018-06-30T17:55:31.302Z,2.30
2018-06-30T17:57:59.760Z,1.93
2018-06-30T18:00:28.303Z,2.47
2018-06-30T18:02:57.090Z,2.03
2018-06-30T18:05:25.269Z,2.63
2018-06-30T18:07:53.715Z,2.70
2018-06-30T18:10:22.258Z,2.83
2018-06-30T18:12:50.820Z,4.90
2018-06-30T18:15:19.239Z,2.60
2018-06-30T18:17:47.643Z,7.50
2018-06-30T18:20:16.126Z,3.77
2018-06-30T18:22:44.755Z,2.10
2018-06-30T18:25:13.222Z,2.20
2018-06-30T18:27:41.653Z,1.90
2018-06-30T18:30:10.206Z,2.33
2018-06-30T18:32:38.390Z,23.57
2018-06-30T18:35:07.166Z,1.70
2018-06-30T18:37:35.617Z,2.00
2018-06-30T18:40:04.469Z,1.80
2018-06-30T18:42:32.898Z,2.07
2018-06-30T18:45:01.378Z,2.00
2018-06-30T18:47:29.898Z,1.80
2018-06-30T18:49:58.405Z,2.53
2018-06-30T18:52:26.834Z,1.70
2018-06-30T18:54:55.255Z,2.00
2018-06-30T18:57:23.827Z,1.73
2018-06-30T18:59:52.382Z,2.43
2018-06-30T19:02:21.813Z,2.00
2018-06-30T19:04:50.187Z,1.80
2018-06-30T19:07:19.107Z,1.70
2018-06-30T19:09:47.550Z,1.80
2018-06-30T19:12:15.936Z,1.50
2018-06-30T19:14:44.422Z,1.43
2018-06-30T19:17:12.572Z,2.20
2018-06-30T19:19:40.981Z,1.50
2018-06-30T19:22:09.441Z,1.30
2018-06-30T19:24:37.992Z,1.43
2018-06-30T19:27:06.459Z,1.87
2018-06-30T19:29:34.887Z,1.67
2018-06-30T19:32:03.305Z,1.30
2018-06-30T19:34:31.792Z,1.43
2018-06-30T19:37:00.250Z,1.50
2018-06-30T19:39:28.638Z,1.60
2018-06-30T19:41:57.094Z,1.73
2018-06-30T19:44:25.531Z,1.50
2018-06-30T19:46:53.981Z,1.77
2018-06-30T19:49:22.480Z,1.53
2018-06-30T19:51:50.877Z,1.50
2018-06-30T19:54:19.349Z,1.47
2018-06-30T19:56:47.748Z,1.70
2018-06-30T19:59:16.473Z,1.70
2018-06-30T20:01:44.845Z,1.60
2018-06-30T20:04:13.298Z,1.40
2018-06-30T20:06:42.526Z,1.20
2018-06-30T20:09:10.949Z,1.37
2018-06-30T20:11:39.729Z,1.40
2018-06-30T20:14:08.182Z,1.40
2018-06-30T20:16:36.641Z,1.50
2018-06-30T20:19:05.080Z,1.57
2018-06-30T20:21:33.208Z,1.23
2018-06-30T20:24:01.579Z,1.27
2018-06-30T20:26:30.171Z,1.20
2018-06-30T20:28:58.550Z,1.40
2018-06-30T20:31:27.030Z,1.50
2018-06-30T20:33:55.524Z,1.40
2018-06-30T20:36:23.974Z,1.30
2018-06-30T20:38:52.418Z,1.00
2018-06-30T20:41:22.076Z,1.35
2018-06-30T20:43:50.596Z,1.33
2018-06-30T20:46:19.893Z,1.73
2018-06-30T20:48:48.294Z,1.33
2018-06-30T20:51:16.784Z,1.20
2018-06-30T20:53:45.216Z,1.20
2018-06-30T20:56:13.665Z,1.37
2018-06-30T20:58:42.065Z,1.40
2018-06-30T21:01:10.412Z,1.20
2018-06-30T21:03:38.934Z,1.40
2018-06-30T21:06:07.362Z,1.30
2018-06-30T21:08:36.506Z,1.50
2018-06-30T21:11:04.993Z,1.33
2018-06-30T21:13:33.486Z,1.40
2018-06-30T21:16:01.935Z,1.03
2018-06-30T21:18:30.814Z,1.20
2018-06-30T21:20:59.216Z,1.03
2018-06-30T21:23:27.661Z,1.30
2018-06-30T21:25:56.519Z,1.33
2018-06-30T21:28:24.904Z,1.10
2018-06-30T21:30:53.379Z,1.10
2018-06-30T21:33:21.762Z,1.40
2018-06-30T21:35:50.270Z,1.10
2018-06-30T21:38:18.883Z,1.40
2018-06-30T21:40:47.273Z,1.37
2018-06-30T21:43:15.698Z,1.20
2018-06-30T21:45:44.165Z,1.50
2018-06-30T21:48:12.630Z,1.10
2018-06-30T21:50:40.998Z,1.20
2018-06-30T21:53:09.475Z,1.10
2018-06-30T21:55:37.885Z,1.30
2018-06-30T21:58:06.814Z,1.30
2018-06-30T22:00:55.384Z,1.20
2018-06-30T22:03:25.838Z,1.23
2018-06-30T22:05:55.475Z,1.10
2018-06-30T22:08:23.886Z,1.30
2018-06-30T22:10:52.382Z,1.10
2018-06-30T22:13:20.949Z,1.10
2018-06-30T22:15:49.881Z,1.13
2018-06-30T22:18:18.834Z,1.20
2018-06-30T22:20:47.264Z,1.17
2018-06-30T22:23:15.655Z,1.10
2018-06-30T22:25:44.110Z,1.20
2018-06-30T22:28:12.487Z,1.03
2018-06-30T22:30:40.595Z,1.20
2018-06-30T22:33:09.020Z,1.23
2018-06-30T22:35:37.427Z,1.00
2018-06-30T22:38:05.994Z,0.87
2018-06-30T22:40:34.452Z,1.10
2018-06-30T22:43:02.817Z,1.10
2018-06-30T22:45:31.229Z,1.20
2018-06-30T22:47:59.628Z,1.10
2018-06-30T22:50:28.028Z,1.10
2018-06-30T22:52:56.474Z,1.00
2018-06-30T22:55:24.893Z,1.10
2018-06-30T22:57:53.448Z,1.23
2018-06-30T23:00:21.845Z,1.20
2018-06-30T23:02:50.311Z,1.13
2018-06-30T23:05:18.757Z,1.23
2018-06-30T23:07:47.162Z,1.10
2018-06-30T23:10:15.647Z,1.20
2018-06-30T23:12:44.664Z,1.33
2018-06-30T23:15:13.247Z,1.00
2018-06-30T23:17:41.642Z,1.20
2018-06-30T23:20:09.782Z,1.10
2018-06-30T23:23:12.606Z,1.30
2018-06-30T23:25:41.581Z,1.00
2018-06-30T23:28:10.016Z,1.23
2018-06-30T23:30:38.413Z,1.20
2018-06-30T23:33:06.978Z,1.33
2018-06-30T23:35:35.397Z,1.30
2018-06-30T23:38:04.319Z,1.40
2018-06-30T23:40:32.745Z,1.20
2018-06-30T23:43:01.142Z,1.20
2018-06-30T23:45:29.576Z,1.20
2018-06-30T23:47:57.926Z,1.20
2018-06-30T23:50:26.329Z,1.33
2018-06-30T23:52:54.697Z,1.70
2018-06-30T23:55:23.123Z,1.70
2018-06-30T23:57:51.510Z,1.50
